Sublime, Texas
Current Conditions -  °F | °C
As of 5:15 AM on Monday 22 Dec 2014 (Local Time) from K66R Reporting Station
Haze Haze  
Wind Chill: 14°   Ceiling: 200
Heat Index: 14°   Visibility: 0.75mi
Dew Point: 14°   Wind: 5mph
Humidity: 99%   Direction: 220°SW
Pressure: 29.76"   Gusts: NA
Location:  29.48°N, 96.8°W
Report Text: K66R 221115Z AUTO 22004KT 3/4SM BR OVC002 14/14 A2976 RMK AO2 T01410140
Loading
Personal Weather Stations






























Interactive Weather Map New forecast layout! Learn more

10-Day Weather Forecast

Advertisements
Track Severe Weather on mobile